Back to Top

Language: 

My Weather Underground Personal Weather Station Historical Data with Graphs...

Delerius Weather Station Historical Data
Daily Summary for December 23, 2017 Units:  English    Metric   Both
« Previous Day
Next Day »
Daily Weekly Monthly Yearly Custom
  High: Low: Average:
Temperature: 50.4 °F 46.9 °F 48.3 °F
Dew Point: 46.9 °F 44.5 °F 45.5 °F
Humidity: 93 % 86 % 90 %
Wind Speed: 16.0 mph 4.0 mph 8.8 mph
Wind Gust: 24.0 mph - -
Wind:- - West
Pressure: 30.52 in 30.26 in -
Precipitation: 0.00 in    
Historical Graphs
 
 
Tabular Data for December 23, 2017
Time Temperature Dew Point Pressure Wind Wind Speed Wind Gust Humidity Rainfall Rate (Hourly) solar Conditions
00:02 46.9 °F 45.0 °F 30.52 in WNW 6.0 mph 8.0 mph 93 % 0.00 in 0 W/m2
00:07 46.9 °F 45.0 °F 30.51 in WNW 6.0 mph 9.0 mph 93 % 0.00 in 0 W/m2
00:08 46.9 °F 45.0 °F 30.52 in WNW 6.0 mph 9.0 mph 93 % 0.00 in 0 W/m2
00:13 46.9 °F 45.0 °F 30.52 in WNW 8.0 mph 10.0 mph 93 % 0.00 in 0 W/m2
00:16 46.9 °F 45.0 °F 30.52 in WNW 8.0 mph 11.0 mph 93 % 0.00 in 0 W/m2
00:21 47.1 °F 45.2 °F 30.51 in WNW 11.0 mph 15.0 mph 93 % 0.00 in 0 W/m2
00:24 47.3 °F 45.4 °F 30.51 in West 9.0 mph 18.0 mph 93 % 0.00 in 0 W/m2
00:26 47.5 °F 45.6 °F 30.51 in West 11.0 mph 18.0 mph 93 % 0.00 in 0 W/m2
00:30 47.7 °F 45.7 °F 30.51 in West 8.0 mph 12.0 mph 93 % 0.00 in 0 W/m2
00:35 47.5 °F 45.3 °F 30.51 in West 9.0 mph 13.0 mph 92 % 0.00 in 0 W/m2
00:36 47.5 °F 45.3 °F 30.51 in West 9.0 mph 13.0 mph 92 % 0.00 in 0 W/m2
00:37 47.5 °F 45.3 °F 30.51 in West 9.0 mph 13.0 mph 92 % 0.00 in 0 W/m2
00:41 47.5 °F 45.6 °F 30.51 in West 9.0 mph 14.0 mph 93 % 0.00 in 0 W/m2
00:42 47.5 °F 45.6 °F 30.51 in West 10.0 mph 14.0 mph 93 % 0.00 in 0 W/m2
00:47 47.7 °F 45.7 °F 30.51 in West 8.0 mph 13.0 mph 93 % 0.00 in 0 W/m2
00:48 47.7 °F 45.7 °F 30.51 in West 8.0 mph 14.0 mph 93 % 0.00 in 0 W/m2
00:53 47.7 °F 45.7 °F 30.51 in West 9.0 mph 14.0 mph 93 % 0.00 in 0 W/m2
00:56 47.7 °F 45.7 °F 30.50 in West 10.0 mph 14.0 mph 93 % 0.00 in 0 W/m2
01:01 47.7 °F 45.7 °F 30.50 in West 9.0 mph 15.0 mph 93 % 0.00 in 0 W/m2
01:06 47.7 °F 45.7 °F 30.50 in WSW 9.0 mph 12.0 mph 93 % 0.00 in 0 W/m2
01:11 47.7 °F 45.7 °F 30.50 in WSW 8.0 mph 11.0 mph 93 % 0.00 in 0 W/m2
01:12 47.8 °F 45.9 °F 30.50 in WSW 9.0 mph 12.0 mph 93 % 0.00 in 0 W/m2
01:17 47.7 °F 45.7 °F 30.50 in West 6.0 mph 9.0 mph 93 % 0.00 in 0 W/m2
01:21 47.7 °F 45.7 °F 30.50 in West 7.0 mph 11.0 mph 93 % 0.00 in 0 W/m2
01:25 47.7 °F 45.7 °F 30.50 in West 10.0 mph 15.0 mph 93 % 0.00 in 0 W/m2
01:28 47.7 °F 45.7 °F 30.49 in West 10.0 mph 16.0 mph 93 % 0.00 in 0 W/m2
01:33 47.7 °F 45.7 °F 30.49 in West 9.0 mph 15.0 mph 93 % 0.00 in 0 W/m2
01:34 47.7 °F 45.7 °F 30.49 in West 8.0 mph 15.0 mph 93 % 0.00 in 0 W/m2
01:35 47.7 °F 45.7 °F 30.49 in West 8.0 mph 12.0 mph 93 % 0.00 in 0 W/m2
01:40 47.7 °F 45.7 °F 30.49 in West 6.0 mph 10.0 mph 93 % 0.00 in 0 W/m2
01:43 47.5 °F 45.6 °F 30.49 in WNW 5.0 mph 8.0 mph 93 % 0.00 in 0 W/m2
01:48 47.5 °F 45.3 °F 30.49 in West 6.0 mph 9.0 mph 92 % 0.00 in 0 W/m2
01:51 47.3 °F 45.1 °F 30.49 in West 8.0 mph 12.0 mph 92 % 0.00 in 0 W/m2
01:56 47.5 °F 45.6 °F 30.49 in West 9.0 mph 11.0 mph 93 % 0.00 in 0 W/m2
01:57 47.5 °F 45.6 °F 30.49 in West 8.0 mph 13.0 mph 93 % 0.00 in 0 W/m2
02:02 47.5 °F 45.6 °F 30.50 in West 8.0 mph 11.0 mph 93 % 0.00 in 0 W/m2
02:04 47.5 °F 45.6 °F 30.49 in West 8.0 mph 13.0 mph 93 % 0.00 in 0 W/m2
02:08 47.5 °F 45.6 °F 30.49 in West 7.0 mph 12.0 mph 93 % 0.00 in 0 W/m2
02:11 47.5 °F 45.6 °F 30.49 in West 7.0 mph 11.0 mph 93 % 0.00 in 0 W/m2
02:16 47.5 °F 45.3 °F 30.49 in West 6.0 mph 10.0 mph 92 % 0.00 in 0 W/m2
02:17 47.5 °F 45.3 °F 30.49 in West 7.0 mph 9.0 mph 92 % 0.00 in 0 W/m2
02:22 47.3 °F 45.4 °F 30.49 in West 7.0 mph 11.0 mph 93 % 0.00 in 0 W/m2
02:25 47.3 °F 45.1 °F 30.49 in WNW 6.0 mph 10.0 mph 92 % 0.00 in 0 W/m2
02:30 47.3 °F 45.4 °F 30.48 in West 7.0 mph 11.0 mph 93 % 0.00 in 0 W/m2
02:32 47.5 °F 45.6 °F 30.48 in West 8.0 mph 15.0 mph 93 % 0.00 in 0 W/m2
02:37 47.5 °F 45.6 °F 30.48 in West 7.0 mph 12.0 mph 93 % 0.00 in 0 W/m2
02:41 47.5 °F 45.6 °F 30.48 in West 8.0 mph 13.0 mph 93 % 0.00 in 0 W/m2
02:42 47.5 °F 45.6 °F 30.48 in West 9.0 mph 14.0 mph 93 % 0.00 in 0 W/m2
02:47 47.7 °F 45.7 °F 30.48 in West 8.0 mph 13.0 mph 93 % 0.00 in 0 W/m2
02:49 47.7 °F 45.7 °F 30.48 in West 8.0 mph 12.0 mph 93 % 0.00 in 0 W/m2
02:53 47.7 °F 45.7 °F 30.48 in West 11.0 mph 19.0 mph 93 % 0.00 in 0 W/m2
02:56 47.7 °F 45.5 °F 30.48 in West 8.0 mph 13.0 mph 92 % 0.00 in 0 W/m2
02:59 47.7 °F 45.5 °F 30.48 in West 11.0 mph 15.0 mph 92 % 0.00 in 0 W/m2
03:02 47.8 °F 45.6 °F 30.48 in West 11.0 mph 18.0 mph 92 % 0.00 in 0 W/m2
03:05 47.8 °F 45.6 °F 30.48 in West 11.0 mph 20.0 mph 92 % 0.00 in 0 W/m2
03:10 47.8 °F 45.6 °F 30.48 in West 8.0 mph 12.0 mph 92 % 0.00 in 0 W/m2
03:17 47.8 °F 45.6 °F 30.47 in West 8.0 mph 11.0 mph 92 % 0.00 in 0 W/m2
03:21 47.8 °F 45.6 °F 30.47 in West 8.0 mph 12.0 mph 92 % 0.00 in 0 W/m2
03:25 47.8 °F 45.6 °F 30.47 in West 8.0 mph 13.0 mph 92 % 0.00 in 0 W/m2
03:27 47.8 °F 45.6 °F 30.47 in West 9.0 mph 13.0 mph 92 % 0.00 in 0 W/m2
03:32 47.8 °F 45.9 °F 30.47 in West 10.0 mph 14.0 mph 93 % 0.00 in 0 W/m2
03:36 48.0 °F 46.1 °F 30.47 in West 9.0 mph 14.0 mph 93 % 0.00 in 0 W/m2
03:40 48.0 °F 46.1 °F 30.47 in West 8.0 mph 12.0 mph 93 % 0.00 in 0 W/m2
03:45 47.8 °F 45.6 °F 30.47 in West 5.0 mph 8.0 mph 92 % 0.00 in 0 W/m2
03:49 47.8 °F 45.6 °F 30.47 in WNW 6.0 mph 10.0 mph 92 % 0.00 in 0 W/m2
03:54 47.8 °F 45.6 °F 30.47 in West 7.0 mph 11.0 mph 92 % 0.00 in 0 W/m2
14:37 49.3 °F 45.3 °F 30.34 in West 13.0 mph 24.0 mph 86 % 0.00 in 79 W/m2
14:39 49.1 °F 45.1 °F 30.34 in West 16.0 mph 24.0 mph 86 % 0.00 in 74 W/m2
14:44 48.9 °F 44.9 °F 30.34 in West 12.0 mph 20.0 mph 86 % 0.00 in 63 W/m2
14:45 48.9 °F 44.9 °F 30.34 in West 12.0 mph 20.0 mph 86 % 0.00 in 63 W/m2
14:50 48.9 °F 45.2 °F 30.35 in West 12.0 mph 18.0 mph 87 % 0.00 in 56 W/m2
14:53 48.7 °F 45.0 °F 30.34 in West 13.0 mph 22.0 mph 87 % 0.00 in 39 W/m2
14:58 48.7 °F 45.0 °F 30.35 in West 11.0 mph 18.0 mph 87 % 0.00 in 39 W/m2
15:03 48.7 °F 45.0 °F 30.35 in West 12.0 mph 18.0 mph 87 % 0.00 in 30 W/m2
15:08 48.6 °F 44.9 °F 30.35 in West 13.0 mph 19.0 mph 87 % 0.00 in 28 W/m2
15:12 48.6 °F 44.9 °F 30.34 in West 11.0 mph 21.0 mph 87 % 0.00 in 26 W/m2
15:14 48.4 °F 44.7 °F 30.34 in West 9.0 mph 14.0 mph 87 % 0.00 in 25 W/m2
15:17 48.4 °F 44.7 °F 30.34 in West 10.0 mph 15.0 mph 87 % 0.00 in 23 W/m2
15:20 48.2 °F 44.5 °F 30.34 in West 10.0 mph 15.0 mph 87 % 0.00 in 21 W/m2
15:23 48.0 °F 44.6 °F 30.34 in West 10.0 mph 15.0 mph 88 % 0.00 in 18 W/m2
15:28 47.8 °F 44.5 °F 30.35 in West 10.0 mph 16.0 mph 88 % 0.00 in 14 W/m2
15:29 47.8 °F 44.5 °F 30.35 in West 10.0 mph 16.0 mph 88 % 0.00 in 14 W/m2
15:30 47.8 °F 44.5 °F 30.35 in West 11.0 mph 16.0 mph 88 % 0.00 in 14 W/m2
15:34 47.8 °F 44.5 °F 30.35 in West 10.0 mph 16.0 mph 88 % 0.00 in 12 W/m2
15:39 47.8 °F 44.5 °F 30.35 in West 9.0 mph 14.0 mph 88 % 0.00 in 9 W/m2
15:43 47.8 °F 44.8 °F 30.35 in WSW 9.0 mph 14.0 mph 89 % 0.00 in 7 W/m2
15:48 47.8 °F 44.8 °F 30.35 in West 7.0 mph 10.0 mph 89 % 0.00 in 5 W/m2
15:50 47.8 °F 44.8 °F 30.36 in West 6.0 mph 11.0 mph 89 % 0.00 in 5 W/m2
15:55 47.8 °F 44.8 °F 30.35 in West 6.0 mph 10.0 mph 89 % 0.00 in 0 W/m2
15:58 47.8 °F 44.8 °F 30.35 in West 6.0 mph 9.0 mph 89 % 0.00 in 0 W/m2
16:03 47.8 °F 44.8 °F 30.36 in West 7.0 mph 10.0 mph 89 % 0.00 in 0 W/m2
16:08 47.8 °F 44.8 °F 30.35 in WSW 6.0 mph 10.0 mph 89 % 0.00 in 0 W/m2
16:09 47.8 °F 44.8 °F 30.35 in WSW 8.0 mph 15.0 mph 89 % 0.00 in 0 W/m2
16:10 47.8 °F 44.8 °F 30.35 in WSW 10.0 mph 15.0 mph 89 % 0.00 in 0 W/m2
16:15 47.8 °F 44.8 °F 30.34 in WSW 10.0 mph 14.0 mph 89 % 0.00 in 0 W/m2
16:16 47.8 °F 44.8 °F 30.34 in WSW 9.0 mph 14.0 mph 89 % 0.00 in 0 W/m2
16:21 47.8 °F 44.8 °F 30.34 in WSW 11.0 mph 16.0 mph 89 % 0.00 in 0 W/m2
16:23 47.8 °F 44.8 °F 30.34 in WSW 11.0 mph 15.0 mph 89 % 0.00 in 0 W/m2
16:25 47.8 °F 44.8 °F 30.34 in WSW 11.0 mph 18.0 mph 89 % 0.00 in 0 W/m2
16:28 47.8 °F 44.8 °F 30.34 in WSW 11.0 mph 18.0 mph 89 % 0.00 in 0 W/m2
16:29 47.8 °F 44.8 °F 30.34 in WSW 10.0 mph 18.0 mph 89 % 0.00 in 0 W/m2
16:34 47.8 °F 44.8 °F 30.34 in WSW 10.0 mph 14.0 mph 89 % 0.00 in 0 W/m2
16:35 47.8 °F 44.8 °F 30.34 in WSW 10.0 mph 14.0 mph 89 % 0.00 in 0 W/m2
16:37 47.8 °F 44.8 °F 30.34 in WSW 10.0 mph 14.0 mph 89 % 0.00 in 0 W/m2
16:40 47.8 °F 44.8 °F 30.34 in WSW 9.0 mph 14.0 mph 89 % 0.00 in 0 W/m2
16:45 47.8 °F 44.8 °F 30.34 in WSW 7.0 mph 10.0 mph 89 % 0.00 in 0 W/m2
16:46 47.8 °F 44.8 °F 30.34 in WSW 7.0 mph 10.0 mph 89 % 0.00 in 0 W/m2
16:51 47.8 °F 44.8 °F 30.34 in WSW 4.0 mph 8.0 mph 89 % 0.00 in 0 W/m2
16:56 47.8 °F 44.8 °F 30.34 in WSW 7.0 mph 12.0 mph 89 % 0.00 in 0 W/m2
16:57 47.8 °F 44.8 °F 30.34 in WSW 7.0 mph 12.0 mph 89 % 0.00 in 0 W/m2
17:02 47.8 °F 45.0 °F 30.34 in WSW 8.0 mph 12.0 mph 90 % 0.00 in 0 W/m2
17:04 47.8 °F 45.0 °F 30.34 in WSW 7.0 mph 18.0 mph 90 % 0.00 in 0 W/m2
17:09 47.8 °F 45.0 °F 30.34 in West 8.0 mph 11.0 mph 90 % 0.00 in 0 W/m2
17:10 48.0 °F 45.2 °F 30.34 in West 8.0 mph 12.0 mph 90 % 0.00 in 0 W/m2
17:15 48.0 °F 44.9 °F 30.34 in West 9.0 mph 14.0 mph 89 % 0.00 in 0 W/m2
17:16 48.0 °F 45.2 °F 30.34 in West 10.0 mph 14.0 mph 90 % 0.00 in 0 W/m2
17:20 48.0 °F 44.9 °F 30.34 in WSW 7.0 mph 12.0 mph 89 % 0.00 in 0 W/m2
17:22 48.0 °F 44.9 °F 30.34 in WSW 5.0 mph 12.0 mph 89 % 0.00 in 0 W/m2
17:27 48.2 °F 45.1 °F 30.33 in WSW 7.0 mph 11.0 mph 89 % 0.00 in 0 W/m2
17:32 48.4 °F 45.3 °F 30.33 in WSW 10.0 mph 16.0 mph 89 % 0.00 in 0 W/m2
17:34 48.4 °F 45.3 °F 30.33 in WSW 11.0 mph 19.0 mph 89 % 0.00 in 0 W/m2
17:39 48.7 °F 45.6 °F 30.33 in WSW 10.0 mph 15.0 mph 89 % 0.00 in 0 W/m2
17:40 48.7 °F 45.6 °F 30.33 in WSW 8.0 mph 13.0 mph 89 % 0.00 in 0 W/m2
17:45 48.7 °F 45.6 °F 30.33 in WSW 4.0 mph 8.0 mph 89 % 0.00 in 0 W/m2
17:46 48.7 °F 45.6 °F 30.33 in WSW 4.0 mph 8.0 mph 89 % 0.00 in 0 W/m2
17:51 48.7 °F 45.6 °F 30.33 in WSW 6.0 mph 9.0 mph 89 % 0.00 in 0 W/m2
17:52 48.7 °F 45.6 °F 30.33 in WSW 6.0 mph 9.0 mph 89 % 0.00 in 0 W/m2
17:57 48.7 °F 45.6 °F 30.33 in WSW 8.0 mph 14.0 mph 89 % 0.00 in 0 W/m2
17:59 48.7 °F 45.6 °F 30.33 in WSW 9.0 mph 15.0 mph 89 % 0.00 in 0 W/m2
18:04 48.7 °F 45.6 °F 30.33 in WSW 8.0 mph 12.0 mph 89 % 0.00 in 0 W/m2
18:06 48.6 °F 45.5 °F 30.32 in WSW 9.0 mph 16.0 mph 89 % 0.00 in 0 W/m2
18:11 48.6 °F 45.5 °F 30.32 in WSW 8.0 mph 13.0 mph 89 % 0.00 in 0 W/m2
18:12 48.6 °F 45.5 °F 30.32 in WSW 8.0 mph 13.0 mph 89 % 0.00 in 0 W/m2
18:15 48.6 °F 45.5 °F 30.32 in WSW 8.0 mph 12.0 mph 89 % 0.00 in 0 W/m2
18:17 48.6 °F 45.5 °F 30.32 in WSW 10.0 mph 16.0 mph 89 % 0.00 in 0 W/m2
18:22 48.6 °F 45.5 °F 30.32 in WSW 10.0 mph 19.0 mph 89 % 0.00 in 0 W/m2
18:23 48.6 °F 45.5 °F 30.32 in WSW 10.0 mph 14.0 mph 89 % 0.00 in 0 W/m2
18:27 48.7 °F 45.6 °F 30.32 in WSW 10.0 mph 15.0 mph 89 % 0.00 in 0 W/m2
18:31 48.7 °F 45.6 °F 30.32 in WSW 9.0 mph 15.0 mph 89 % 0.00 in 0 W/m2
18:34 48.7 °F 45.6 °F 30.31 in WSW 9.0 mph 15.0 mph 89 % 0.00 in 0 W/m2
18:40 48.7 °F 45.6 °F 30.31 in WSW 12.0 mph 18.0 mph 89 % 0.00 in 0 W/m2
18:42 48.7 °F 45.6 °F 30.31 in WSW 12.0 mph 18.0 mph 89 % 0.00 in 0 W/m2
18:47 48.7 °F 45.6 °F 30.31 in WSW 10.0 mph 15.0 mph 89 % 0.00 in 0 W/m2
18:52 48.6 °F 45.5 °F 30.32 in West 10.0 mph 16.0 mph 89 % 0.00 in 0 W/m2
18:57 48.6 °F 45.5 °F 30.31 in WSW 10.0 mph 14.0 mph 89 % 0.00 in 0 W/m2
19:02 48.6 °F 45.5 °F 30.31 in WSW 9.0 mph 14.0 mph 89 % 0.00 in 0 W/m2
19:07 48.6 °F 45.5 °F 30.32 in WSW 9.0 mph 14.0 mph 89 % 0.00 in 0 W/m2
19:12 48.6 °F 45.5 °F 30.32 in WSW 7.0 mph 12.0 mph 89 % 0.00 in 0 W/m2
19:15 48.6 °F 45.5 °F 30.32 in WSW 9.0 mph 13.0 mph 89 % 0.00 in 0 W/m2
19:20 48.4 °F 45.3 °F 30.32 in WSW 8.0 mph 12.0 mph 89 % 0.00 in 0 W/m2
19:23 48.4 °F 45.3 °F 30.32 in WSW 8.0 mph 13.0 mph 89 % 0.00 in 0 W/m2
19:26 48.4 °F 45.3 °F 30.32 in WSW 9.0 mph 14.0 mph 89 % 0.00 in 0 W/m2
19:29 48.4 °F 45.3 °F 30.32 in West 7.0 mph 11.0 mph 89 % 0.00 in 0 W/m2
19:33 48.4 °F 45.3 °F 30.32 in WSW 6.0 mph 13.0 mph 89 % 0.00 in 0 W/m2
19:35 48.4 °F 45.3 °F 30.32 in WSW 9.0 mph 13.0 mph 89 % 0.00 in 0 W/m2
19:40 48.4 °F 45.6 °F 30.32 in West 10.0 mph 15.0 mph 90 % 0.00 in 0 W/m2
19:41 48.4 °F 45.6 °F 30.32 in West 9.0 mph 15.0 mph 90 % 0.00 in 0 W/m2
19:46 48.4 °F 45.3 °F 30.32 in West 7.0 mph 10.0 mph 89 % 0.00 in 0 W/m2
19:51 48.2 °F 45.4 °F 30.32 in West 6.0 mph 14.0 mph 90 % 0.00 in 0 W/m2
19:52 48.2 °F 45.4 °F 30.32 in West 7.0 mph 14.0 mph 90 % 0.00 in 0 W/m2
19:54 48.2 °F 45.4 °F 30.32 in West 6.0 mph 11.0 mph 90 % 0.00 in 0 W/m2
19:59 48.2 °F 45.4 °F 30.32 in WSW 8.0 mph 14.0 mph 90 % 0.00 in 0 W/m2
20:04 48.2 °F 45.4 °F 30.32 in WSW 8.0 mph 12.0 mph 90 % 0.00 in 0 W/m2
20:06 48.2 °F 45.4 °F 30.32 in West 7.0 mph 11.0 mph 90 % 0.00 in 0 W/m2
20:09 48.2 °F 45.4 °F 30.32 in WSW 5.0 mph 10.0 mph 90 % 0.00 in 0 W/m2
20:14 48.2 °F 45.4 °F 30.32 in WSW 7.0 mph 11.0 mph 90 % 0.00 in 0 W/m2
20:15 48.2 °F 45.4 °F 30.32 in WSW 7.0 mph 11.0 mph 90 % 0.00 in 0 W/m2
20:20 48.0 °F 44.9 °F 30.32 in WSW 8.0 mph 14.0 mph 89 % 0.00 in 0 W/m2
20:25 48.2 °F 45.1 °F 30.31 in SW 10.0 mph 15.0 mph 89 % 0.00 in 0 W/m2
20:27 48.2 °F 45.4 °F 30.31 in WSW 10.0 mph 13.0 mph 90 % 0.00 in 0 W/m2
20:32 48.2 °F 45.1 °F 30.32 in WSW 9.0 mph 16.0 mph 89 % 0.00 in 0 W/m2
20:37 48.4 °F 45.3 °F 30.32 in WSW 13.0 mph 19.0 mph 89 % 0.00 in 0 W/m2
20:41 48.4 °F 45.3 °F 30.31 in WSW 10.0 mph 15.0 mph 89 % 0.00 in 0 W/m2
20:46 48.4 °F 45.3 °F 30.31 in WSW 8.0 mph 15.0 mph 89 % 0.00 in 0 W/m2
20:47 48.4 °F 45.3 °F 30.31 in WSW 8.0 mph 15.0 mph 89 % 0.00 in 0 W/m2
20:49 48.4 °F 45.3 °F 30.31 in WSW 7.0 mph 11.0 mph 89 % 0.00 in 0 W/m2
20:54 48.6 °F 45.5 °F 30.31 in WSW 9.0 mph 13.0 mph 89 % 0.00 in 0 W/m2
20:55 48.6 °F 45.5 °F 30.31 in WSW 9.0 mph 13.0 mph 89 % 0.00 in 0 W/m2
21:00 48.6 °F 45.2 °F 30.31 in West 11.0 mph 15.0 mph 88 % 0.00 in 0 W/m2
21:03 48.6 °F 45.2 °F 30.31 in West 12.0 mph 18.0 mph 88 % 0.00 in 0 W/m2
21:07 48.7 °F 45.3 °F 30.31 in WSW 9.0 mph 13.0 mph 88 % 0.00 in 0 W/m2
21:10 48.7 °F 45.3 °F 30.31 in West 8.0 mph 11.0 mph 88 % 0.00 in 0 W/m2
21:15 48.7 °F 45.3 °F 30.31 in West 7.0 mph 10.0 mph 88 % 0.00 in 0 W/m2
21:20 48.7 °F 45.3 °F 30.31 in West 7.0 mph 12.0 mph 88 % 0.00 in 0 W/m2
21:22 48.7 °F 45.3 °F 30.31 in West 6.0 mph 13.0 mph 88 % 0.00 in 0 W/m2
21:27 48.7 °F 45.3 °F 30.31 in West 7.0 mph 11.0 mph 88 % 0.00 in 0 W/m2
21:28 48.7 °F 45.3 °F 30.31 in West 7.0 mph 11.0 mph 88 % 0.00 in 0 W/m2
21:33 48.9 °F 45.5 °F 30.31 in WSW 5.0 mph 8.0 mph 88 % 0.00 in 0 W/m2
21:35 48.9 °F 45.5 °F 30.31 in WSW 5.0 mph 9.0 mph 88 % 0.00 in 0 W/m2
21:40 48.9 °F 45.5 °F 30.31 in West 9.0 mph 14.0 mph 88 % 0.00 in 0 W/m2
21:45 48.9 °F 45.5 °F 30.31 in West 9.0 mph 16.0 mph 88 % 0.00 in 0 W/m2
21:46 48.9 °F 45.5 °F 30.31 in West 10.0 mph 18.0 mph 88 % 0.00 in 0 W/m2
21:51 48.9 °F 45.5 °F 30.31 in West 12.0 mph 19.0 mph 88 % 0.00 in 0 W/m2
21:54 49.1 °F 45.7 °F 30.31 in West 11.0 mph 18.0 mph 88 % 0.00 in 0 W/m2
21:59 49.1 °F 45.7 °F 30.31 in West 11.0 mph 20.0 mph 88 % 0.00 in 0 W/m2
22:01 49.1 °F 45.7 °F 30.30 in West 13.0 mph 20.0 mph 88 % 0.00 in 0 W/m2
22:03 49.1 °F 45.7 °F 30.30 in West 12.0 mph 20.0 mph 88 % 0.00 in 0 W/m2
22:08 49.1 °F 45.7 °F 30.30 in West 13.0 mph 22.0 mph 88 % 0.00 in 0 W/m2
22:11 49.1 °F 45.7 °F 30.30 in West 11.0 mph 18.0 mph 88 % 0.00 in 0 W/m2
22:12 49.1 °F 45.7 °F 30.30 in West 11.0 mph 18.0 mph 88 % 0.00 in 0 W/m2
22:16 49.1 °F 45.7 °F 30.30 in WSW 14.0 mph 22.0 mph 88 % 0.00 in 0 W/m2
22:21 49.3 °F 45.9 °F 30.30 in West 8.0 mph 14.0 mph 88 % 0.00 in 0 W/m2
22:22 49.3 °F 45.9 °F 30.30 in West 8.0 mph 14.0 mph 88 % 0.00 in 0 W/m2
22:27 49.3 °F 45.9 °F 30.30 in West 11.0 mph 18.0 mph 88 % 0.00 in 0 W/m2
22:32 49.3 °F 45.9 °F 30.30 in WSW 8.0 mph 13.0 mph 88 % 0.00 in 0 W/m2
22:33 49.3 °F 45.9 °F 30.30 in WSW 8.0 mph 13.0 mph 88 % 0.00 in 0 W/m2
22:38 49.3 °F 45.9 °F 30.29 in WSW 10.0 mph 15.0 mph 88 % 0.00 in 0 W/m2
22:43 49.5 °F 46.1 °F 30.29 in West 11.0 mph 14.0 mph 88 % 0.00 in 0 W/m2
22:44 49.5 °F 46.1 °F 30.29 in West 10.0 mph 14.0 mph 88 % 0.00 in 0 W/m2
22:45 49.5 °F 46.1 °F 30.29 in West 10.0 mph 15.0 mph 88 % 0.00 in 0 W/m2
22:50 49.5 °F 46.1 °F 30.28 in West 8.0 mph 12.0 mph 88 % 0.00 in 0 W/m2
22:51 49.5 °F 46.1 °F 30.28 in West 9.0 mph 13.0 mph 88 % 0.00 in 0 W/m2
22:54 49.5 °F 46.1 °F 30.28 in WSW 11.0 mph 16.0 mph 88 % 0.00 in 0 W/m2
22:59 49.5 °F 46.1 °F 30.28 in West 9.0 mph 13.0 mph 88 % 0.00 in 0 W/m2
23:04 49.6 °F 46.2 °F 30.28 in West 10.0 mph 16.0 mph 88 % 0.00 in 0 W/m2
23:05 49.6 °F 46.2 °F 30.28 in West 10.0 mph 16.0 mph 88 % 0.00 in 0 W/m2
23:10 49.6 °F 46.2 °F 30.28 in West 9.0 mph 14.0 mph 88 % 0.00 in 0 W/m2
23:15 49.6 °F 46.2 °F 30.28 in West 8.0 mph 14.0 mph 88 % 0.00 in 0 W/m2
23:20 49.8 °F 46.4 °F 30.28 in West 10.0 mph 13.0 mph 88 % 0.00 in 0 W/m2
23:21 49.6 °F 46.2 °F 30.28 in West 9.0 mph 13.0 mph 88 % 0.00 in 0 W/m2
23:26 49.8 °F 46.4 °F 30.27 in West 8.0 mph 12.0 mph 88 % 0.00 in 0 W/m2
23:27 49.8 °F 46.4 °F 30.27 in West 7.0 mph 12.0 mph 88 % 0.00 in 0 W/m2
23:32 49.8 °F 46.4 °F 30.27 in West 9.0 mph 15.0 mph 88 % 0.00 in 0 W/m2
23:33 49.8 °F 46.4 °F 30.27 in West 10.0 mph 16.0 mph 88 % 0.00 in 0 W/m2
23:38 50.0 °F 46.6 °F 30.27 in West 10.0 mph 18.0 mph 88 % 0.00 in 0 W/m2
23:39 50.2 °F 46.8 °F 30.27 in West 11.0 mph 18.0 mph 88 % 0.00 in 0 W/m2
23:43 50.2 °F 46.8 °F 30.27 in West 10.0 mph 18.0 mph 88 % 0.00 in 0 W/m2
23:48 50.2 °F 46.8 °F 30.27 in West 16.0 mph 24.0 mph 88 % 0.00 in 0 W/m2
23:50 50.2 °F 46.8 °F 30.27 in West 15.0 mph 24.0 mph 88 % 0.00 in 0 W/m2
23:52 50.4 °F 46.9 °F 30.27 in West 9.0 mph 15.0 mph 88 % 0.00 in 0 W/m2
23:57 50.4 °F 46.9 °F 30.27 in West 12.0 mph 16.0 mph 88 % 0.00 in 0 W/m2
23:59 50.4 °F 46.6 °F 30.26 in West 9.0 mph 15.0 mph 87 % 0.00 in 0 W/m2
Delerius-Weather
Compliments of Weather Underground - 2 mb

Data updates at regular intervals.